createdAt,value
2019-03-16T00:00:10.926Z,71.93
2019-03-16T00:02:42.709Z,72.02
2019-03-16T00:05:14.493Z,72.11
2019-03-16T00:07:46.206Z,72.14
2019-03-16T00:10:17.801Z,72.14
2019-03-16T00:12:49.571Z,72.14
2019-03-16T00:15:21.187Z,72.15
2019-03-16T00:17:53.184Z,72.14
2019-03-16T00:20:24.782Z,72.15
2019-03-16T00:22:56.695Z,72.14
2019-03-16T00:25:28.314Z,72.18
2019-03-16T00:27:59.941Z,72.21
2019-03-16T00:30:31.647Z,72.31
2019-03-16T00:33:03.357Z,72.31
2019-03-16T00:35:34.994Z,72.35
2019-03-16T00:38:06.685Z,72.44
2019-03-16T00:40:38.549Z,72.48
2019-03-16T00:43:10.225Z,72.51
2019-03-16T00:45:41.840Z,72.54
2019-03-16T00:48:13.622Z,72.55
2019-03-16T00:50:45.607Z,72.57
2019-03-16T00:53:17.237Z,72.58
2019-03-16T00:55:48.887Z,72.54
2019-03-16T00:58:20.481Z,72.57
2019-03-16T01:00:52.241Z,72.55
2019-03-16T01:03:24.232Z,72.57
2019-03-16T01:05:56.052Z,72.57
2019-03-16T01:08:27.673Z,72.59
2019-03-16T01:10:59.386Z,72.56
2019-03-16T01:13:31.007Z,72.61
2019-03-16T01:16:02.791Z,72.64
2019-03-16T01:18:34.541Z,72.67
2019-03-16T01:21:06.417Z,72.77
2019-03-16T01:23:38.303Z,72.78
2019-03-16T01:26:09.919Z,72.82
2019-03-16T01:28:41.590Z,72.84
2019-03-16T01:31:13.309Z,72.85
2019-03-16T01:33:44.962Z,72.93
2019-03-16T01:36:16.590Z,72.94
2019-03-16T01:38:48.210Z,72.93
2019-03-16T01:41:19.842Z,72.94
2019-03-16T01:43:51.762Z,72.95
2019-03-16T01:46:23.582Z,72.92
2019-03-16T01:48:55.199Z,72.91
2019-03-16T01:51:26.891Z,72.94
2019-03-16T01:53:58.483Z,72.96
2019-03-16T01:56:30.208Z,73.00
2019-03-16T01:59:01.837Z,73.00
2019-03-16T02:01:33.924Z,73.02
2019-03-16T02:04:07.058Z,73.07
2019-03-16T02:06:38.909Z,73.10
2019-03-16T02:09:10.507Z,73.13
2019-03-16T02:11:42.093Z,73.15
2019-03-16T02:14:13.762Z,73.17
2019-03-16T02:16:45.511Z,73.20
2019-03-16T02:19:18.271Z,73.25
2019-03-16T02:21:50.398Z,73.29
2019-03-16T02:24:22.452Z,73.31
2019-03-16T02:26:54.281Z,73.33
2019-03-16T02:29:26.006Z,73.35
2019-03-16T02:31:57.624Z,73.44
2019-03-16T02:34:29.362Z,73.51
2019-03-16T02:37:00.979Z,73.53
2019-03-16T02:39:33.000Z,73.54
2019-03-16T02:42:04.603Z,73.57
2019-03-16T02:44:36.311Z,73.53
2019-03-16T02:47:07.961Z,73.59
2019-03-16T02:49:39.652Z,73.61
2019-03-16T02:52:11.249Z,73.65
2019-03-16T02:54:42.854Z,73.65
2019-03-16T02:57:14.512Z,73.70
2019-03-16T02:59:46.131Z,73.67
2019-03-16T03:02:17.961Z,73.66
2019-03-16T03:04:49.720Z,73.69
2019-03-16T03:07:21.385Z,73.67
2019-03-16T03:09:53.028Z,73.74
2019-03-16T03:12:24.581Z,73.74
2019-03-16T03:14:56.201Z,73.76
2019-03-16T03:17:27.799Z,73.77
2019-03-16T03:19:59.664Z,73.78
2019-03-16T03:22:31.427Z,73.83
2019-03-16T03:25:03.050Z,73.87
2019-03-16T03:27:34.823Z,73.89
2019-03-16T03:30:08.084Z,73.86
2019-03-16T03:32:39.937Z,73.85
2019-03-16T03:35:11.884Z,73.87
2019-03-16T03:37:43.578Z,73.86
2019-03-16T03:40:15.180Z,73.84
2019-03-16T03:42:46.750Z,73.83
2019-03-16T03:45:18.471Z,73.83
2019-03-16T03:47:50.101Z,73.88
2019-03-16T03:50:21.983Z,73.83
2019-03-16T03:52:53.637Z,73.86
2019-03-16T03:55:25.258Z,73.83
2019-03-16T03:57:56.951Z,73.80
2019-03-16T04:00:28.544Z,73.78
2019-03-16T04:03:00.157Z,73.75
2019-03-16T04:05:31.762Z,73.69
2019-03-16T04:08:03.504Z,73.66
2019-03-16T04:10:35.094Z,73.56
2019-03-16T04:13:08.246Z,73.50
2019-03-16T04:15:41.479Z,73.44
2019-03-16T04:18:13.094Z,73.40
2019-03-16T04:20:44.684Z,73.35
2019-03-16T04:23:16.584Z,73.30
2019-03-16T04:25:48.206Z,73.27
2019-03-16T04:28:19.862Z,73.22
2019-03-16T04:30:51.532Z,73.20
2019-03-16T04:33:23.238Z,73.18
2019-03-16T04:35:54.858Z,73.13
2019-03-16T04:38:26.651Z,73.09
2019-03-16T04:40:58.235Z,73.06
2019-03-16T04:43:29.849Z,73.01
2019-03-16T04:46:01.424Z,73.01
2019-03-16T04:48:33.057Z,72.96
2019-03-16T04:51:04.670Z,72.94
2019-03-16T04:53:36.450Z,72.92
2019-03-16T04:56:08.105Z,72.88
2019-03-16T04:58:39.806Z,72.84
2019-03-16T05:01:11.390Z,72.77
2019-03-16T05:03:43.014Z,72.74
2019-03-16T05:06:14.581Z,72.71
2019-03-16T05:08:46.420Z,72.67
2019-03-16T05:11:18.121Z,72.64
2019-03-16T05:13:49.720Z,72.59
2019-03-16T05:16:21.480Z,72.56
2019-03-16T05:18:53.133Z,72.52
2019-03-16T05:21:24.746Z,72.46
2019-03-16T05:23:56.788Z,72.36
2019-03-16T05:26:28.627Z,72.29
2019-03-16T05:29:00.229Z,72.30
2019-03-16T05:31:31.853Z,72.27
2019-03-16T05:34:03.548Z,72.27
2019-03-16T05:36:35.293Z,72.23
2019-03-16T05:39:09.473Z,72.21
2019-03-16T05:41:41.298Z,72.23
2019-03-16T05:44:12.891Z,72.23
2019-03-16T05:46:44.544Z,72.18
2019-03-16T05:49:16.225Z,72.21
2019-03-16T05:51:47.885Z,72.22
2019-03-16T05:54:19.478Z,72.20
2019-03-16T05:56:51.340Z,72.21
2019-03-16T05:59:23.032Z,72.17
2019-03-16T06:01:54.670Z,72.16
2019-03-16T06:04:26.353Z,72.12
2019-03-16T06:06:58.089Z,72.08
2019-03-16T06:09:29.709Z,72.00
2019-03-16T06:12:01.603Z,72.01
2019-03-16T06:14:33.448Z,71.98
2019-03-16T06:17:05.132Z,71.94
2019-03-16T06:19:36.721Z,71.86
2019-03-16T06:22:08.684Z,71.82
2019-03-16T06:24:40.324Z,71.73
2019-03-16T06:27:12.377Z,71.65
2019-03-16T06:29:44.034Z,71.61
2019-03-16T06:32:15.677Z,71.50
2019-03-16T06:34:47.369Z,71.43
2019-03-16T06:37:19.032Z,71.40
2019-03-16T06:39:50.651Z,71.34
2019-03-16T06:42:22.484Z,71.19
2019-03-16T06:44:54.147Z,71.08
2019-03-16T06:47:25.782Z,71.08
2019-03-16T06:49:57.515Z,71.04
2019-03-16T06:52:29.223Z,70.92
2019-03-16T06:55:01.005Z,70.83
2019-03-16T06:57:32.621Z,70.79
2019-03-16T07:00:04.681Z,70.80
2019-03-16T07:02:36.364Z,70.77
2019-03-16T07:05:09.579Z,70.75
2019-03-16T07:07:41.340Z,70.75
2019-03-16T07:10:12.989Z,70.81
2019-03-16T07:12:44.658Z,70.83
2019-03-16T07:15:16.464Z,70.86
2019-03-16T07:17:48.155Z,70.81
2019-03-16T07:20:19.775Z,70.84
2019-03-16T07:22:51.565Z,70.84
2019-03-16T07:25:23.198Z,70.88
2019-03-16T07:27:54.917Z,70.84
2019-03-16T07:30:26.914Z,70.79
2019-03-16T07:32:58.640Z,70.80
2019-03-16T07:35:30.290Z,70.57
2019-03-16T07:38:02.027Z,70.52
2019-03-16T07:40:33.834Z,70.40
2019-03-16T07:43:05.625Z,70.23
2019-03-16T07:45:37.498Z,70.15
2019-03-16T07:48:09.159Z,69.98
2019-03-16T07:50:40.823Z,69.92
2019-03-16T07:53:12.563Z,69.85
2019-03-16T07:55:44.286Z,69.79
2019-03-16T07:58:15.913Z,69.61
2019-03-16T08:00:49.589Z,69.70
2019-03-16T08:03:21.210Z,69.62
2019-03-16T08:05:52.870Z,69.51
2019-03-16T08:08:24.582Z,69.44
2019-03-16T08:10:56.205Z,69.25
2019-03-16T08:13:28.062Z,69.20
2019-03-16T08:15:59.885Z,69.06
2019-03-16T08:18:31.653Z,68.91
2019-03-16T08:21:03.402Z,68.71
2019-03-16T08:23:36.233Z,68.58
2019-03-16T08:26:07.924Z,68.61
2019-03-16T08:28:39.686Z,68.54
2019-03-16T08:31:11.989Z,68.39
2019-03-16T08:33:43.760Z,68.23
2019-03-16T08:36:15.483Z,67.58
2019-03-16T08:38:47.151Z,67.75
2019-03-16T08:41:19.259Z,67.68
2019-03-16T08:43:51.095Z,67.70
2019-03-16T08:46:23.429Z,67.53
2019-03-16T08:48:55.182Z,67.50
2019-03-16T08:51:26.922Z,67.38
2019-03-16T08:53:58.581Z,67.21
2019-03-16T08:56:30.215Z,67.12
2019-03-16T08:59:01.921Z,67.13
2019-03-16T09:01:33.669Z,67.06
2019-03-16T09:04:05.746Z,66.97
2019-03-16T09:06:37.424Z,66.90
2019-03-16T09:09:10.070Z,66.83
2019-03-16T09:11:41.674Z,66.77
2019-03-16T09:14:13.385Z,66.72
2019-03-16T09:16:45.283Z,66.51
2019-03-16T09:19:17.677Z,66.71
2019-03-16T09:21:49.473Z,66.55
2019-03-16T09:24:21.303Z,66.61
2019-03-16T09:26:52.923Z,66.49
2019-03-16T09:29:24.579Z,66.53
2019-03-16T09:31:56.274Z,66.54
2019-03-16T09:34:28.669Z,66.62
2019-03-16T09:37:00.717Z,66.44
2019-03-16T09:39:32.432Z,66.40
2019-03-16T09:42:04.176Z,66.08
2019-03-16T09:44:36.087Z,65.79
2019-03-16T09:47:07.797Z,65.44
2019-03-16T09:49:40.299Z,64.76
2019-03-16T09:52:12.060Z,64.90
2019-03-16T09:54:43.726Z,64.44
2019-03-16T09:57:15.359Z,64.02
2019-03-16T09:59:46.991Z,64.02
2019-03-16T10:02:18.647Z,64.00
2019-03-16T10:04:50.316Z,63.92
2019-03-16T10:07:22.462Z,64.02
2019-03-16T10:09:54.124Z,64.12
2019-03-16T10:12:25.863Z,64.05
2019-03-16T10:14:57.640Z,63.95
2019-03-16T10:17:29.400Z,63.83
2019-03-16T10:20:01.187Z,63.52
2019-03-16T10:22:33.648Z,63.63
2019-03-16T10:25:05.485Z,63.80
2019-03-16T10:27:37.158Z,63.99
2019-03-16T10:30:10.547Z,63.95
2019-03-16T10:32:42.261Z,63.86
2019-03-16T10:35:14.012Z,63.90
2019-03-16T10:37:46.282Z,64.00
2019-03-16T10:40:18.528Z,63.87
2019-03-16T10:42:50.199Z,63.79
2019-03-16T10:45:21.879Z,63.75
2019-03-16T10:47:53.444Z,63.72
2019-03-16T10:50:25.299Z,63.82
2019-03-16T10:52:57.811Z,63.78
2019-03-16T10:55:29.614Z,63.71
2019-03-16T10:58:01.374Z,63.84
2019-03-16T11:00:33.028Z,63.78
2019-03-16T11:03:04.753Z,63.82
2019-03-16T11:05:36.409Z,63.82
2019-03-16T11:08:08.917Z,63.57
2019-03-16T11:10:40.603Z,63.51
2019-03-16T11:13:12.336Z,63.36
2019-03-16T11:15:44.002Z,62.87
2019-03-16T11:18:15.727Z,62.35
2019-03-16T11:20:47.371Z,62.38
2019-03-16T11:23:19.903Z,62.25
2019-03-16T11:25:51.611Z,61.98
2019-03-16T11:28:23.288Z,61.20
2019-03-16T11:30:54.962Z,61.31
2019-03-16T11:33:26.638Z,60.51
2019-03-16T11:35:58.394Z,60.60
2019-03-16T11:38:30.054Z,60.56
2019-03-16T11:41:02.457Z,60.51
2019-03-16T11:43:34.099Z,60.45
2019-03-16T11:46:05.852Z,60.45
2019-03-16T11:48:37.734Z,60.03
2019-03-16T11:51:09.438Z,60.12
2019-03-16T11:53:41.224Z,59.69
2019-03-16T11:56:18.313Z,59.26
2019-03-16T11:58:46.920Z,58.97
2019-03-16T12:01:18.657Z,58.85
2019-03-16T12:03:51.944Z,58.95
2019-03-16T12:06:23.552Z,58.80
2019-03-16T12:08:55.615Z,58.58
2019-03-16T12:11:28.062Z,57.68
2019-03-16T12:13:59.894Z,57.81
2019-03-16T12:16:32.163Z,57.68
2019-03-16T12:19:03.947Z,58.08
2019-03-16T12:21:35.915Z,57.89
2019-03-16T12:24:07.669Z,58.15
2019-03-16T12:26:40.048Z,58.00
2019-03-16T12:29:11.872Z,57.80
2019-03-16T12:31:43.679Z,57.57
2019-03-16T12:34:15.599Z,57.15
2019-03-16T12:36:47.320Z,57.18
2019-03-16T12:39:19.162Z,57.08
2019-03-16T12:41:51.442Z,57.32
2019-03-16T12:44:23.135Z,57.14
2019-03-16T12:46:54.796Z,56.67
2019-03-16T12:49:26.454Z,56.26
2019-03-16T12:51:58.433Z,55.99
2019-03-16T12:54:30.105Z,55.66
2019-03-16T12:57:02.567Z,55.84
2019-03-16T12:59:45.966Z,56.20
2019-03-16T13:02:07.665Z,55.91
2019-03-16T13:04:39.424Z,55.77
2019-03-16T13:07:11.142Z,55.77
2019-03-16T13:09:42.869Z,55.23
2019-03-16T13:12:15.379Z,55.18
2019-03-16T13:14:47.091Z,54.66
2019-03-16T13:17:18.873Z,54.96
2019-03-16T13:19:50.583Z,54.90
2019-03-16T13:22:22.438Z,54.58
2019-03-16T13:24:54.057Z,54.62
2019-03-16T13:27:26.518Z,54.56
2019-03-16T13:29:59.384Z,54.41
2019-03-16T13:32:31.210Z,54.39
2019-03-16T13:35:02.999Z,54.19
2019-03-16T13:37:34.857Z,54.05
2019-03-16T13:40:07.865Z,54.22
2019-03-16T13:42:40.802Z,54.24
2019-03-16T13:45:12.975Z,54.30
2019-03-16T13:47:44.800Z,53.71
2019-03-16T13:50:16.515Z,53.73
2019-03-16T13:52:48.553Z,53.49
2019-03-16T13:55:20.250Z,53.57
2019-03-16T13:57:52.098Z,53.93
2019-03-16T14:00:24.596Z,53.81
2019-03-16T14:02:56.383Z,53.72
2019-03-16T14:05:28.031Z,53.73
2019-03-16T14:07:59.767Z,53.71
2019-03-16T14:10:31.846Z,53.61
2019-03-16T14:13:03.588Z,53.74
2019-03-16T14:15:35.685Z,53.97
2019-03-16T14:18:07.319Z,54.06
2019-03-16T14:20:39.053Z,54.00
2019-03-16T14:23:10.889Z,53.85
2019-03-16T14:25:42.921Z,53.83
2019-03-16T14:28:15.391Z,53.91
2019-03-16T14:30:47.788Z,53.96
2019-03-16T14:33:19.659Z,54.06
2019-03-16T14:35:51.318Z,54.06
2019-03-16T14:38:23.059Z,54.17
2019-03-16T14:40:54.695Z,54.12
2019-03-16T14:43:26.385Z,53.87
2019-03-16T14:45:58.735Z,53.97
2019-03-16T14:48:30.592Z,53.92
2019-03-16T14:51:02.288Z,54.08
2019-03-16T14:53:34.385Z,54.02
2019-03-16T14:56:06.016Z,54.01
2019-03-16T14:58:37.642Z,54.02
2019-03-16T15:01:10.035Z,53.76
2019-03-16T15:03:41.690Z,53.87
2019-03-16T15:06:13.412Z,53.77
2019-03-16T15:08:45.069Z,53.75
2019-03-16T15:11:16.809Z,53.44
2019-03-16T15:13:48.472Z,53.46
2019-03-16T15:16:20.660Z,53.46
2019-03-16T15:18:52.266Z,53.60
2019-03-16T15:21:23.928Z,53.59
2019-03-16T15:23:55.947Z,53.56
2019-03-16T15:26:27.627Z,53.30
2019-03-16T15:28:59.291Z,53.33
2019-03-16T15:31:31.293Z,53.31
2019-03-16T15:34:02.948Z,53.45
2019-03-16T15:36:34.685Z,53.41
2019-03-16T15:39:08.528Z,53.36
2019-03-16T15:41:40.248Z,53.24
2019-03-16T15:44:11.975Z,53.31
2019-03-16T15:46:44.376Z,53.39
2019-03-16T15:49:16.022Z,53.42
2019-03-16T15:51:48.481Z,53.30
2019-03-16T15:54:20.127Z,53.24
2019-03-16T15:56:51.920Z,53.15
2019-03-16T15:59:23.702Z,53.09
2019-03-16T16:01:56.088Z,52.92
2019-03-16T16:04:27.842Z,52.96
2019-03-16T16:06:59.483Z,52.95
2019-03-16T16:09:31.500Z,52.93
2019-03-16T16:12:04.453Z,52.82
2019-03-16T16:14:36.347Z,52.88
2019-03-16T16:17:08.723Z,52.97
2019-03-16T16:19:40.403Z,53.07
2019-03-16T16:22:12.127Z,53.10
2019-03-16T16:24:44.029Z,53.23
2019-03-16T16:27:15.712Z,53.21
2019-03-16T16:29:47.433Z,53.30
2019-03-16T16:32:19.207Z,53.24
2019-03-16T16:34:51.314Z,53.31
2019-03-16T16:37:22.985Z,53.28
2019-03-16T16:39:54.726Z,53.25
2019-03-16T16:42:26.422Z,53.34
2019-03-16T16:44:58.121Z,53.27
2019-03-16T16:47:29.757Z,53.24
2019-03-16T16:50:02.183Z,53.14
2019-03-16T16:52:33.903Z,53.13
2019-03-16T16:55:05.691Z,53.18
2019-03-16T16:57:37.372Z,53.17
2019-03-16T17:00:15.784Z,53.17
2019-03-16T17:02:47.494Z,53.05
2019-03-16T17:05:19.774Z,53.06
2019-03-16T17:07:51.505Z,52.93
2019-03-16T17:10:23.433Z,52.96
2019-03-16T17:12:55.335Z,52.94
2019-03-16T17:15:27.065Z,52.89
2019-03-16T17:17:58.761Z,52.95
2019-03-16T17:20:31.232Z,52.94
2019-03-16T17:23:03.123Z,52.85
2019-03-16T17:25:35.352Z,52.85
2019-03-16T17:28:06.989Z,52.81
2019-03-16T17:30:38.802Z,52.92
2019-03-16T17:33:10.523Z,52.93
2019-03-16T17:35:42.830Z,52.91
2019-03-16T17:38:14.472Z,52.91
2019-03-16T17:40:46.389Z,52.91
2019-03-16T17:43:18.104Z,52.95
2019-03-16T17:45:49.855Z,52.95
2019-03-16T17:48:21.699Z,52.96
2019-03-16T17:50:53.445Z,52.91
2019-03-16T17:53:25.549Z,52.91
2019-03-16T17:55:57.287Z,52.97
2019-03-16T17:58:29.077Z,52.97
2019-03-16T18:01:00.792Z,52.96
2019-03-16T18:03:32.438Z,52.95
2019-03-16T18:06:04.210Z,53.00
2019-03-16T18:08:36.568Z,53.03
2019-03-16T18:11:08.226Z,53.08
2019-03-16T18:13:40.003Z,53.11
2019-03-16T18:16:11.763Z,53.14
2019-03-16T18:18:43.536Z,53.18
2019-03-16T18:21:15.345Z,53.25
2019-03-16T18:23:47.898Z,53.31
2019-03-16T18:26:19.697Z,53.35
2019-03-16T18:28:51.419Z,53.41
2019-03-16T18:31:23.059Z,53.39
2019-03-16T18:33:54.775Z,53.41
2019-03-16T18:36:26.803Z,53.43
2019-03-16T18:38:59.277Z,53.43
2019-03-16T18:41:30.967Z,53.43
2019-03-16T18:44:02.745Z,53.50
2019-03-16T18:46:34.463Z,53.50
2019-03-16T18:49:06.301Z,53.51
2019-03-16T18:51:38.031Z,53.49
2019-03-16T18:54:10.430Z,53.46
2019-03-16T18:56:42.165Z,53.41
2019-03-16T18:59:14.108Z,53.39
2019-03-16T19:01:45.968Z,53.36
2019-03-16T19:04:17.644Z,53.38
2019-03-16T19:06:49.895Z,53.38
2019-03-16T19:09:22.303Z,53.45
2019-03-16T19:11:54.046Z,53.51
2019-03-16T19:14:25.823Z,53.55
2019-03-16T19:16:57.472Z,53.61
2019-03-16T19:19:29.269Z,53.66
2019-03-16T19:22:01.197Z,53.74
2019-03-16T19:24:33.981Z,53.79
2019-03-16T19:27:05.804Z,53.86
2019-03-16T19:29:37.655Z,53.81
2019-03-16T19:32:09.441Z,53.82
2019-03-16T19:34:41.347Z,53.83
2019-03-16T19:37:13.154Z,53.84
2019-03-16T19:39:45.223Z,53.81
2019-03-16T19:42:17.648Z,53.80
2019-03-16T19:44:49.358Z,53.84
2019-03-16T19:47:21.209Z,53.85
2019-03-16T19:49:53.043Z,53.89
2019-03-16T19:52:24.980Z,53.96
2019-03-16T19:54:57.692Z,54.03
2019-03-16T19:57:30.717Z,54.10
2019-03-16T20:00:02.403Z,54.21
2019-03-16T20:02:46.188Z,54.33
2019-03-16T20:05:08.111Z,54.38
2019-03-16T20:07:39.790Z,54.42
2019-03-16T20:10:13.269Z,54.45
2019-03-16T20:12:45.658Z,54.51
2019-03-16T20:15:17.636Z,54.61
2019-03-16T20:17:49.696Z,54.62
2019-03-16T20:20:21.397Z,54.64
2019-03-16T20:22:53.096Z,54.63
2019-03-16T20:25:24.925Z,54.63
2019-03-16T20:27:57.273Z,54.67
2019-03-16T20:30:29.024Z,54.71
2019-03-16T20:33:04.692Z,54.84
2019-03-16T20:35:34.156Z,54.97
2019-03-16T20:38:05.856Z,55.01
2019-03-16T20:40:37.551Z,55.03
2019-03-16T20:43:09.889Z,55.06
2019-03-16T20:45:41.579Z,55.15
2019-03-16T20:48:13.485Z,55.17
2019-03-16T20:50:45.299Z,55.23
2019-03-16T20:53:16.985Z,55.24
2019-03-16T20:55:48.763Z,55.31
2019-03-16T20:58:20.521Z,55.40
2019-03-16T21:00:52.892Z,55.45
2019-03-16T21:03:24.711Z,55.44
2019-03-16T21:05:56.460Z,55.47
2019-03-16T21:08:28.246Z,55.58
2019-03-16T21:10:59.938Z,55.70
2019-03-16T21:13:31.975Z,55.73
2019-03-16T21:16:04.330Z,55.74
2019-03-16T21:18:36.224Z,55.73
2019-03-16T21:21:07.973Z,55.73
2019-03-16T21:23:39.756Z,55.71
2019-03-16T21:26:11.545Z,55.74
2019-03-16T21:28:43.202Z,55.78
2019-03-16T21:31:15.892Z,55.79
2019-03-16T21:33:48.304Z,55.78
2019-03-16T21:36:20.036Z,55.79
2019-03-16T21:38:51.898Z,55.87
2019-03-16T21:41:23.713Z,56.01
2019-03-16T21:43:55.437Z,56.14
2019-03-16T21:46:27.797Z,56.23
2019-03-16T21:48:59.428Z,56.35
2019-03-16T21:51:31.163Z,56.42
2019-03-16T21:54:02.852Z,56.47
2019-03-16T21:56:34.559Z,56.51
2019-03-16T21:59:06.242Z,56.56
2019-03-16T22:01:38.597Z,56.63
2019-03-16T22:04:10.487Z,56.71
2019-03-16T22:06:42.236Z,56.77
2019-03-16T22:09:13.859Z,56.79
2019-03-16T22:11:45.628Z,56.82
2019-03-16T22:14:17.381Z,56.84
2019-03-16T22:16:49.816Z,56.89
2019-03-16T22:19:21.576Z,56.94
2019-03-16T22:21:53.237Z,57.00
2019-03-16T22:24:25.552Z,57.07
2019-03-16T22:26:57.252Z,57.12
2019-03-16T22:29:29.034Z,57.17
2019-03-16T22:32:01.493Z,57.21
2019-03-16T22:34:33.313Z,57.20
2019-03-16T22:37:05.006Z,57.10
2019-03-16T22:39:36.885Z,57.04
2019-03-16T22:42:08.686Z,57.05
2019-03-16T22:44:40.547Z,57.06
2019-03-16T22:47:12.036Z,57.15
2019-03-16T22:49:44.004Z,57.25
2019-03-16T22:52:15.727Z,57.31
2019-03-16T22:54:47.272Z,57.33
2019-03-16T22:57:18.791Z,57.38
2019-03-16T22:59:50.421Z,57.44
2019-03-16T23:02:21.846Z,57.52
2019-03-16T23:04:55.586Z,57.62
2019-03-16T23:07:27.076Z,57.67
2019-03-16T23:09:59.008Z,57.74
2019-03-16T23:12:30.683Z,57.75
2019-03-16T23:15:02.389Z,57.75
2019-03-16T23:17:35.196Z,57.71
2019-03-16T23:20:07.974Z,57.62
2019-03-16T23:22:39.759Z,57.60
2019-03-16T23:25:11.906Z,57.73
2019-03-16T23:27:43.536Z,57.77
2019-03-16T23:30:15.350Z,57.86
2019-03-16T23:32:46.980Z,57.92
2019-03-16T23:35:18.989Z,57.90
2019-03-16T23:37:50.607Z,57.87
2019-03-16T23:40:22.230Z,57.87
2019-03-16T23:42:53.951Z,57.92
2019-03-16T23:45:25.717Z,57.98
2019-03-16T23:47:57.331Z,57.99
2019-03-16T23:50:29.353Z,57.96
2019-03-16T23:53:00.973Z,57.87
2019-03-16T23:55:32.700Z,57.84
2019-03-16T23:58:04.331Z,57.78
